Terminal Aerodrome Forecast
Issued by NWS

Home | Current Version | Previous Version | Text Only | Print | Product List | Glossary On
Versions: 1 2 3 4 5 6 7 8 9 10 11 12 13 14 15 16 17 18
000
FTUS44 KOUN 291234 AAA
TAFGAG
TAF AMD
KGAG 291234Z 2913/3012 16010KT P6SM VCSH BKN100
      TEMPO 2913/2916 -TSRA BKN010CB
     FM291600 13012KT P6SM SCT012 OVC025
      TEMPO 2916/2920 3SM -TSRA BR BKN009 OVC014CB
     FM292000 16010G17KT P6SM BKN050
     FM300900 18010KT P6SM BKN015=

USA.gov is the U.S. government's official web portal to all federal, state and local government web resources and services.